Time;durP1;ratioP1;P1;durP2;ratioP2;P2;SDS_P1;SDS_P2;PMS_P1;PMS_P2;Temp;Humidity;BMP_temperature;BMP_pressure;BME280_temperature;BME280_humidity;BME280_pressure;Samples;Min_cycle;Max_cycle;Signal;HPM_P1;HPM_P2
2023/12/13 00:00:39;;;;;;;8.55;6.88;;;10.50;99.90;;;;;;6372095;22;20014;-93
2023/12/13 00:03:29;;;;;;;7.15;6.32;;;9.70;99.90;;;;;;6372063;22;20010;-93
2023/12/13 00:06:10;;;;;;;8.57;7.45;;;9.70;99.90;;;;;;6372311;22;20011;-94
2023/12/13 00:08:54;;;;;;;;;;;9.70;99.90;;;;;;6374909;22;19994;-92
2023/12/13 00:11:42;;;;;;;8.40;6.95;;;9.70;99.90;;;;;;6373412;22;19905;-94
2023/12/13 00:14:26;;;;;;;7.82;6.68;;;9.80;99.90;;;;;;6374534;22;20042;-93
2023/12/13 00:16:52;;;;;;;9.32;7.00;;;10.30;99.90;;;;;;6372293;22;20154;-93
2023/12/13 00:19:29;;;;;;;6.80;6.20;;;10.40;99.90;;;;;;6371825;22;20005;-94
2023/12/13 00:21:55;;;;;;;12.25;6.95;;;10.00;99.90;;;;;;6372426;22;20013;-93
2023/12/13 00:24:40;;;;;;;7.22;6.53;;;10.90;99.90;;;;;;6372194;22;20034;-92
2023/12/13 00:27:30;;;;;;;7.82;6.15;;;10.40;99.90;;;;;;6371548;22;20002;-93
2023/12/13 00:30:20;;;;;;;8.40;5.78;;;9.10;99.90;;;;;;6371936;22;20097;-94
2023/12/13 00:33:09;;;;;;;8.73;5.45;;;9.60;99.90;;;;;;6376472;22;20060;-92
2023/12/13 00:36:00;;;;;;;5.82;5.22;;;9.10;99.90;;;;;;6417189;22;20040;-94
2023/12/13 00:38:37;;;;;;;8.75;5.68;;;9.60;99.90;;;;;;6419237;22;20006;-94
2023/12/13 00:41:24;;;;;;;9.38;6.13;;;10.00;99.90;;;;;;6410894;22;20006;-94
2023/12/13 00:43:57;;;;;;;7.43;5.90;;;9.60;99.90;;;;;;6408741;22;20002;-93
2023/12/13 00:46:34;;;;;;;;;;;;;;;;;;;;;
2023/12/13 00:49:00;;;;;;;9.60;6.03;;;9.80;99.90;;;;;;6297929;22;20046;-93
2023/12/13 00:51:47;;;;;;;8.18;5.30;;;10.90;99.90;;;;;;6405762;22;20008;-93
2023/12/13 00:54:25;;;;;;;9.45;6.43;;;9.20;99.90;;;;;;6403842;22;20085;-94
2023/12/13 00:57:09;;;;;;;8.60;6.50;;;10.40;99.90;;;;;;6409277;22;20008;-94
2023/12/13 00:59:54;;;;;;;6.18;5.57;;;10.30;99.90;;;;;;6403114;22;20005;-93
2023/12/13 01:02:37;;;;;;;11.48;5.75;;;9.50;99.90;;;;;;6402054;22;20033;-93
2023/12/13 01:05:09;;;;;;;9.40;5.03;;;9.60;99.90;;;;;;6402550;22;20430;-94
2023/12/13 01:07:55;;;;;;;7.40;6.03;;;10.50;99.90;;;;;;6402372;22;20005;-94
2023/12/13 01:10:39;;;;;;;9.18;5.38;;;10.00;99.90;;;;;;6407061;22;20422;-94
2023/12/13 01:13:16;;;;;;;7.15;5.32;;;10.30;99.90;;;;;;6402103;22;20006;-93
2023/12/13 01:15:42;;;;;;;6.45;5.22;;;8.90;99.90;;;;;;6402805;22;20029;-93
2023/12/13 01:18:26;;;;;;;8.07;4.72;;;10.40;99.90;;;;;;6402221;22;20028;-94
2023/12/13 01:21:11;;;;;;;8.10;4.72;;;9.90;99.90;;;;;;6402486;22;20069;-93
2023/12/13 01:23:48;;;;;;;8.93;4.47;;;10.20;99.90;;;;;;6402223;22;20081;-93
2023/12/13 01:26:35;;;;;;;6.85;4.05;;;9.50;99.90;;;;;;6403798;22;20288;-93
2023/12/13 01:29:01;;;;;;;6.78;3.47;;;9.20;99.90;;;;;;6426166;22;20010;-93
2023/12/13 01:31:49;;;;;;;9.23;3.83;;;10.10;99.90;;;;;;6417284;22;20031;-92
2023/12/13 01:34:36;;;;;;;4.95;3.45;;;9.50;99.90;;;;;;6403243;22;20058;-92
2023/12/13 01:37:27;;;;;;;6.53;3.70;;;9.50;99.90;;;;;;6401846;22;20017;-93
2023/12/13 01:40:18;;;;;;;;;;;;;;;;;;;;;
2023/12/13 01:43:06;;;;;;;5.47;4.13;;;9.50;99.90;;;;;;6402141;22;20084;-92
2023/12/13 01:46:08;;;;;;;4.20;3.63;;;9.00;99.90;;;;;;6401602;22;20086;-93
2023/12/13 01:48:40;;;;;;;8.00;3.63;;;9.50;99.90;;;;;;6401006;22;20006;-92
2023/12/13 01:51:15;;;;;;;4.35;3.58;;;9.60;99.90;;;;;;6403272;22;20120;-93
2023/12/13 01:54:13;;;;;;;8.38;3.80;;;10.40;99.90;;;;;;6402327;22;20107;-92
2023/12/13 01:57:04;;;;;;;5.10;3.47;;;9.20;99.90;;;;;;6426036;22;19990;-93
2023/12/13 01:59:55;;;;;;;;;;;9.50;99.90;;;;;;6413069;22;20021;-92
2023/12/13 02:02:58;;;;;;;7.90;3.45;;;9.60;99.90;;;;;;6403209;22;19905;-92
2023/12/13 02:05:43;;;;;;;5.95;4.18;;;9.60;99.90;;;;;;6403551;22;20037;-93
2023/12/13 02:08:15;;;;;;;5.10;3.53;;;9.60;99.90;;;;;;6407459;22;19996;-92
2023/12/13 02:10:47;;;;;;;6.10;3.30;;;10.30;99.90;;;;;;6402479;22;20009;-93
2023/12/13 02:13:30;;;;;;;4.50;3.45;;;10.30;99.90;;;;;;6404729;22;20002;-93
2023/12/13 02:16:02;;;;;;;7.50;3.90;;;10.30;99.90;;;;;;6402638;22;20009;-93
2023/12/13 02:18:43;;;;;;;5.85;3.63;;;9.60;99.90;;;;;;6402030;22;20004;-93
2023/12/13 02:21:34;;;;;;;6.07;3.55;;;10.60;99.90;;;;;;6405379;22;20006;-93
2023/12/13 02:24:23;;;;;;;6.88;3.85;;;9.60;99.90;;;;;;6426493;22;20018;-93
2023/12/13 02:26:54;;;;;;;7.55;4.38;;;9.70;99.90;;;;;;6416930;22;19998;-92
2023/12/13 02:29:39;;;;;;;7.68;4.38;;;9.90;99.90;;;;;;6410260;22;20054;-93
2023/12/13 02:32:27;;;;;;;7.65;4.65;;;9.50;99.90;;;;;;6402855;22;20005;-92
2023/12/13 02:34:54;;;;;;;7.40;3.88;;;9.50;99.90;;;;;;6402282;22;20426;-93
2023/12/13 02:37:38;;;;;;;5.82;4.55;;;10.70;99.90;;;;;;6401854;22;20102;-93
2023/12/13 02:40:27;;;;;;;10.18;4.57;;;9.70;99.90;;;;;;6403059;22;20009;-94
2023/12/13 02:43:15;;;;;;;7.97;4.82;;;9.70;99.90;;;;;;6399521;22;20013;-92
2023/12/13 02:45:41;;;;;;;5.72;4.65;;;9.90;99.90;;;;;;6373046;22;20018;-92
2023/12/13 02:48:25;;;;;;;6.18;4.30;;;10.40;99.90;;;;;;6385714;22;19982;-91
2023/12/13 02:51:16;;;;;;;6.10;4.43;;;9.90;99.90;;;;;;6395481;22;19998;-93
2023/12/13 02:54:05;;;;;;;8.90;5.07;;;9.30;99.90;;;;;;6384376;22;20007;-94
2023/12/13 02:56:42;;;;;;;7.05;5.75;;;9.80;99.90;;;;;;6377418;22;20018;-93
2023/12/13 02:59:29;;;;;;;5.78;5.18;;;9.80;99.90;;;;;;6370529;22;20500;-92
2023/12/13 03:02:19;;;;;;;7.43;6.25;;;10.60;99.90;;;;;;6374276;22;20006;-93
2023/12/13 03:04:45;;;;;;;8.60;5.87;;;9.70;99.90;;;;;;6373442;22;20334;-94
2023/12/13 03:07:13;;;;;;;9.80;6.75;;;9.90;99.90;;;;;;6373746;22;20015;-92
2023/12/13 03:09:40;;;;;;;11.20;7.18;;;9.90;99.90;;;;;;6370334;22;20088;-92
2023/12/13 03:12:11;;;;;;;13.73;7.65;;;10.50;99.90;;;;;;6371916;22;20010;-93
2023/12/13 03:14:55;;;;;;;;;;;10.40;99.90;;;;;;6379329;22;20001;-93
2023/12/13 03:17:21;;;;;;;11.43;7.70;;;9.70;99.90;;;;;;6394732;22;19940;-91
2023/12/13 03:20:06;;;;;;;11.07;8.35;;;10.40;99.90;;;;;;6383387;22;20006;-92
2023/12/13 03:25:39;;;;;;;11.48;7.80;;;9.60;99.90;;;;;;6372895;22;20519;-92
2023/12/13 03:28:23;;;;;;;11.50;8.48;;;9.20;99.90;;;;;;6373581;22;20026;-93
2023/12/13 03:31:10;;;;;;;12.48;9.02;;;10.10;99.90;;;;;;6371093;22;20071;-92
2023/12/13 03:33:36;;;;;;;12.05;8.52;;;9.50;99.90;;;;;;6371248;22;20002;-93
2023/12/13 03:36:21;;;;;;;10.85;8.32;;;9.50;99.90;;;;;;6373106;22;20002;-92
2023/12/13 03:38:47;;;;;;;11.52;8.90;;;10.90;99.90;;;;;;6372028;22;20310;-91
2023/12/13 03:41:21;;;;;;;13.80;8.77;;;10.20;99.90;;;;;;6372082;22;20261;-92
2023/12/13 03:43:47;;;;;;;11.90;9.63;;;10.20;99.90;;;;;;6370896;22;20034;-91
2023/12/13 03:46:30;;;;;;;9.73;8.70;;;10.00;99.90;;;;;;6371838;22;20453;-92
2023/12/13 03:49:18;;;;;;;10.98;8.32;;;10.40;99.90;;;;;;6371491;22;20009;-93
2023/12/13 03:51:46;;;;;;;10.73;8.27;;;9.40;99.90;;;;;;6372728;22;19998;-92
2023/12/13 03:54:31;;;;;;;12.88;10.07;;;10.10;99.90;;;;;;6372279;22;20006;-93
2023/12/13 03:56:58;;;;;;;13.18;8.65;;;9.40;99.90;;;;;;6371826;22;20307;-92
2023/12/13 03:59:45;;;;;;;14.90;9.32;;;10.00;99.90;;;;;;6373170;22;20083;-93
2023/12/13 04:02:11;;;;;;;13.63;9.68;;;8.90;99.90;;;;;;6377629;22;20070;-91
2023/12/13 04:05:00;;;;;;;14.25;9.43;;;10.20;99.90;;;;;;6316925;22;20448;-91
2023/12/13 04:07:26;;;;;;;12.38;8.45;;;8.70;99.90;;;;;;6404906;22;20002;-91
2023/12/13 04:10:12;;;;;;;13.13;8.60;;;9.40;99.90;;;;;;6405756;22;20009;-92
2023/12/13 04:12:38;;;;;;;10.55;8.23;;;10.40;99.90;;;;;;6424737;22;20001;-92
2023/12/13 04:15:26;;;;;;;11.80;8.43;;;9.90;99.90;;;;;;6414597;22;20024;-92
2023/12/13 04:17:51;;;;;;;10.50;8.13;;;9.30;99.90;;;;;;6399102;22;19998;-93
2023/12/13 04:20:40;;;;;;;13.52;9.00;;;9.80;99.90;;;;;;6403203;22;20009;-93
2023/12/13 04:23:06;;;;;;;11.57;8.52;;;9.30;99.90;;;;;;6400967;22;20076;-93
2023/12/13 04:25:47;;;;;;;13.57;9.15;;;9.90;99.90;;;;;;6404396;22;20033;-92
2023/12/13 04:28:37;;;;;;;14.00;8.73;;;9.80;99.90;;;;;;6421272;22;20002;-92
2023/12/13 04:31:17;;;;;;;12.20;8.00;;;9.30;99.90;;;;;;6429621;22;20042;-91
2023/12/13 04:34:03;;;;;;;11.18;8.55;;;10.20;99.90;;;;;;6429602;22;19990;-92
2023/12/13 04:36:40;;;;;;;14.18;7.85;;;9.70;99.90;;;;;;6420581;22;19986;-93
2023/12/13 04:39:06;;;;;;;14.52;8.07;;;9.20;99.90;;;;;;6421734;22;20017;-93
2023/12/13 04:41:52;;;;;;;12.57;9.45;;;10.00;99.90;;;;;;6405785;22;19998;-92
2023/12/13 04:44:27;;;;;;;15.38;8.20;;;8.60;99.90;;;;;;6402998;22;20006;-92
2023/12/13 04:47:17;;;;;;;14.13;8.88;;;10.50;99.90;;;;;;6407296;22;20017;-93
2023/12/13 04:49:43;;;;;;;11.53;8.03;;;9.50;99.90;;;;;;6402097;22;19997;-90
2023/12/13 04:52:30;;;;;;;13.65;8.38;;;10.10;99.90;;;;;;6408127;22;20224;-92
2023/12/13 04:54:56;;;;;;;11.00;7.65;;;9.30;99.90;;;;;;6396766;22;20018;-92
2023/12/13 04:57:25;;;;;;;10.88;8.20;;;10.00;99.90;;;;;;6404223;22;20090;-92
2023/12/13 04:59:50;;;;;;;15.48;8.68;;;10.00;99.90;;;;;;6402430;22;20002;-92
2023/12/13 05:02:27;;;;;;;17.33;8.65;;;8.80;99.90;;;;;;6371671;22;20029;-91
2023/12/13 05:05:08;;;;;;;12.63;7.93;;;9.80;99.90;;;;;;6371335;22;20081;-91
2023/12/13 05:07:52;;;;;;;22.65;8.82;;;9.40;99.90;;;;;;6396383;22;19998;-91
2023/12/13 05:10:43;;;;;;;12.13;7.65;;;9.40;99.90;;;;;;6375485;22;19999;-92
2023/12/13 05:13:29;;;;;;;;;;;9.40;99.90;;;;;;6371908;22;20430;-93
2023/12/13 05:15:55;;;;;;;10.13;7.25;;;9.40;99.90;;;;;;6374507;22;19902;-92
2023/12/13 05:18:34;;;;;;;13.80;8.00;;;9.40;99.90;;;;;;6367986;22;20434;-92
2023/12/13 05:21:16;;;;;;;14.80;8.65;;;10.40;99.90;;;;;;6370599;22;20013;-92
2023/12/13 05:23:42;;;;;;;16.30;7.60;;;9.40;99.90;;;;;;6370748;22;20044;-91
2023/12/13 05:26:27;;;;;;;24.27;9.10;;;10.20;99.90;;;;;;6371785;22;20002;-92
2023/12/13 05:29:06;;;;;;;13.48;7.80;;;9.40;99.90;;;;;;6375374;22;20085;-93
2023/12/13 05:31:32;;;;;;;11.77;8.60;;;10.30;99.90;;;;;;6396164;22;20011;-93
2023/12/13 05:34:10;;;;;;;11.30;7.90;;;10.80;99.90;;;;;;6385987;22;20009;-94
2023/12/13 05:36:54;;;;;;;15.93;8.23;;;9.50;99.90;;;;;;6372988;22;19998;-92
2023/12/13 05:39:35;;;;;;;16.52;8.25;;;10.30;99.90;;;;;;6371877;22;20028;-93
2023/12/13 05:42:09;;;;;;;;;;;10.10;99.90;;;;;;6372010;22;19999;-92
2023/12/13 05:44:36;;;;;;;17.50;8.70;;;9.40;99.90;;;;;;6371969;22;19913;-92
2023/12/13 05:47:03;;;;;;;15.15;9.07;;;10.20;99.90;;;;;;6374239;22;20013;-92
2023/12/13 05:49:47;;;;;;;17.15;9.30;;;9.90;99.90;;;;;;6372954;22;20006;-92
2023/12/13 05:52:36;;;;;;;19.60;9.43;;;10.20;99.90;;;;;;6371213;22;19998;-92
2023/12/13 05:55:14;;;;;;;16.63;9.10;;;9.50;99.90;;;;;;6371669;22;20047;-92
2023/12/13 05:58:02;;;;;;;18.00;9.07;;;10.20;99.90;;;;;;6390197;22;20006;-91
2023/12/13 06:00:27;;;;;;;17.77;8.45;;;9.60;99.90;;;;;;6393872;22;19994;-93
2023/12/13 06:03:04;;;;;;;20.45;8.82;;;10.20;99.90;;;;;;6389434;22;20401;-92
2023/12/13 06:05:47;;;;;;;13.40;8.27;;;9.60;99.90;;;;;;6376813;22;20018;-94
2023/12/13 06:08:36;;;;;;;20.77;9.50;;;9.60;99.90;;;;;;6376184;22;20056;-93
2023/12/13 06:11:18;;;;;;;22.27;8.80;;;9.50;99.90;;;;;;6378884;22;19999;-94
2023/12/13 06:13:45;;;;;;;19.95;8.52;;;9.50;99.90;;;;;;6398597;22;19983;-94
2023/12/13 06:16:30;;;;;;;16.52;7.65;;;10.40;99.90;;;;;;6342540;22;20020;-94
2023/12/13 06:20:06;;;;;;;14.50;8.40;;;9.50;99.90;;;;;;6391780;22;20030;-93
2023/12/13 06:22:56;;;;;;;18.20;7.75;;;9.40;99.90;;;;;;6372197;22;20002;-94
2023/12/13 06:26:12;;;;;;;21.90;9.02;;;9.50;99.90;;;;;;6377014;22;20006;-95
2023/12/13 06:29:03;;;;;;;16.25;8.63;;;9.60;99.90;;;;;;6380627;22;20029;-93
2023/12/13 06:31:44;;;;;;;15.38;8.48;;;9.20;99.90;;;;;;6393049;22;20010;-93
2023/12/13 06:34:31;;;;;;;;;;;10.30;99.90;;;;;;6374565;22;19998;-94
2023/12/13 06:36:57;;;;;;;18.60;8.75;;;9.30;99.90;;;;;;6372018;22;19898;-93
2023/12/13 06:39:46;;;;;;;14.70;9.10;;;9.50;99.90;;;;;;6373523;22;20153;-94
2023/12/13 06:42:33;;;;;;;20.55;9.90;;;9.20;99.90;;;;;;6373520;22;20478;-92
2023/12/13 06:45:15;;;;;;;19.00;9.63;;;9.00;99.90;;;;;;6375075;22;20010;-93
2023/12/13 06:47:41;;;;;;;14.82;9.27;;;10.20;99.90;;;;;;6373985;22;20006;-94
2023/12/13 06:50:24;;;;;;;19.40;9.20;;;9.60;99.90;;;;;;6374497;22;20014;-92
2023/12/13 06:52:51;;;;;;;25.08;10.27;;;9.80;99.90;;;;;;6371806;22;20002;-92
2023/12/13 06:55:32;;;;;;;15.98;9.75;;;10.70;99.90;;;;;;6394901;22;20013;-93
2023/12/13 06:57:58;;;;;;;19.98;8.77;;;9.60;99.90;;;;;;6380534;22;20002;-92
2023/12/13 07:00:42;;;;;;;17.48;9.02;;;10.30;99.90;;;;;;6371481;22;20014;-93
2023/12/13 07:03:26;;;;;;;30.10;9.07;;;9.40;99.90;;;;;;6376375;22;20026;-93
2023/12/13 07:06:03;;;;;;;16.15;9.00;;;9.40;99.90;;;;;;6376221;22;20018;-92
2023/12/13 07:08:50;;;;;;;17.27;9.23;;;9.60;99.90;;;;;;6372652;22;20074;-93
2023/12/13 07:11:31;;;;;;;17.80;9.32;;;9.00;99.90;;;;;;6377794;22;19995;-94
2023/12/13 07:14:02;;;;;;;17.70;8.90;;;10.10;99.90;;;;;;6372756;22;20020;-93
2023/12/13 07:16:43;;;;;;;18.25;9.32;;;10.10;99.90;;;;;;6372406;22;20165;-93
2023/12/13 07:19:27;;;;;;;16.58;9.75;;;10.30;99.90;;;;;;6395578;22;20014;-94
2023/12/13 07:22:35;;;;;;;18.20;9.55;;;10.30;99.90;;;;;;6379368;22;20251;-93
2023/12/13 07:25:23;;;;;;;19.98;8.68;;;9.60;99.90;;;;;;6374107;22;20022;-93
2023/12/13 07:27:49;;;;;;;16.60;9.68;;;9.30;99.90;;;;;;6374472;22;20449;-92
2023/12/13 07:33:57;;;;;;;25.25;10.38;;;9.60;99.90;;;;;;6281765;22;20042;-92
2023/12/13 07:36:48;;;;;;;24.73;10.75;;;10.30;99.90;;;;;;6308035;22;20022;-93
2023/12/13 07:42:06;;;;;;;20.98;9.48;;;9.70;99.90;;;;;;6385255;22;19914;-93
2023/12/13 07:44:33;;;;;;;17.50;9.50;;;9.90;99.90;;;;;;6403111;22;20430;-92
2023/12/13 07:46:59;;;;;;;17.58;9.73;;;10.10;99.90;;;;;;6405206;22;19998;-90
2023/12/13 07:50:01;;;;;;;20.58;10.30;;;9.60;99.90;;;;;;6395936;22;20014;-93
2023/12/13 07:52:29;;;;;;;16.60;9.60;;;9.60;99.90;;;;;;6376983;22;20028;-92
2023/12/13 07:55:18;;;;;;;26.50;10.48;;;10.10;99.90;;;;;;6387595;22;20006;-91
2023/12/13 07:58:02;;;;;;;17.50;9.73;;;9.50;99.90;;;;;;6395748;22;20014;-93
2023/12/13 08:00:43;;;;;;;23.10;11.50;;;9.20;99.90;;;;;;6385940;22;20007;-92
2023/12/13 08:03:09;;;;;;;15.98;10.43;;;10.30;99.90;;;;;;6378170;22;20419;-95
2023/12/13 08:05:35;;;;;;;25.70;10.75;;;10.60;99.90;;;;;;6372241;22;20017;-91
2023/12/13 08:09:01;;;;;;;;;;;;;;;;;;;;;
2023/12/13 08:12:16;;;;;;;21.63;10.80;;;9.70;99.90;;;;;;6194532;23;20032;-95
2023/12/13 08:14:41;;;;;;;18.38;10.70;;;9.50;99.90;;;;;;6269875;22;19999;-93
2023/12/13 08:17:08;;;;;;;21.45;11.40;;;9.90;99.90;;;;;;6375204;22;20002;-93
2023/12/13 08:19:35;;;;;;;20.65;11.98;;;10.50;99.90;;;;;;6372235;22;20021;-93
2023/12/13 08:22:10;;;;;;;18.90;10.35;;;10.30;99.90;;;;;;6372338;22;20322;-92
2023/12/13 08:24:36;;;;;;;20.85;10.90;;;9.20;99.90;;;;;;6369071;22;20049;-88
2023/12/13 08:27:29;;;;;;;16.35;11.07;;;10.30;99.90;;;;;;6389309;22;20009;-94
2023/12/13 08:30:07;;;;;;;19.10;10.20;;;9.70;99.90;;;;;;6380897;22;20010;-91
2023/12/13 08:33:04;;;;;;;13.00;10.20;;;9.70;99.90;;;;;;6375782;22;19998;-92
2023/12/13 08:35:38;;;;;;;16.25;10.40;;;9.70;99.90;;;;;;6369723;22;20010;-88
2023/12/13 08:38:04;;;;;;;17.67;11.18;;;10.30;99.90;;;;;;6380160;22;20002;-89
2023/12/13 08:40:29;;;;;;;20.63;11.50;;;10.00;99.90;;;;;;6379783;22;20056;-86
2023/12/13 08:42:55;;;;;;;17.80;11.65;;;9.70;99.90;;;;;;6374718;22;20003;-89
2023/12/13 08:45:21;;;;;;;27.00;11.43;;;10.00;99.90;;;;;;6383278;22;20014;-89
2023/12/13 08:48:44;;;;;;;23.40;11.23;;;9.70;99.90;;;;;;6373863;22;20406;-94
2023/12/13 08:51:26;;;;;;;17.98;10.90;;;9.70;99.90;;;;;;6340753;22;20002;-88
2023/12/13 08:53:54;;;;;;;21.35;11.82;;;10.30;99.90;;;;;;6368703;22;20490;-89
2023/12/13 08:56:38;;;;;;;15.70;10.95;;;10.40;99.90;;;;;;6370012;22;20029;-86
2023/12/13 08:59:03;;;;;;;16.52;10.25;;;9.50;99.90;;;;;;6367754;22;20006;-86
2023/12/13 09:01:35;;;;;;;23.10;12.35;;;10.40;99.90;;;;;;6367129;22;20550;-88
2023/12/13 09:04:00;;;;;;;19.58;10.57;;;10.80;99.90;;;;;;6370535;22;20006;-90
2023/12/13 09:09:14;;;;;;;27.88;11.43;;;9.80;99.90;;;;;;6352944;22;20023;-88
2023/12/13 09:11:40;;;;;;;23.17;11.25;;;9.80;99.90;;;;;;6368012;22;20002;-88
2023/12/13 09:14:09;;;;;;;23.20;12.00;;;10.30;99.90;;;;;;6369281;22;20006;-88
2023/12/13 09:16:50;;;;;;;19.58;11.82;;;9.80;99.90;;;;;;6369630;22;20107;-88
2023/12/13 09:19:16;;;;;;;18.02;12.07;;;10.60;99.90;;;;;;6369434;22;19998;-89
2023/12/13 09:21:53;;;;;;;21.58;12.23;;;9.90;99.90;;;;;;6370938;22;20067;-89
2023/12/13 09:24:26;;;;;;;25.02;12.98;;;9.90;99.90;;;;;;6374326;22;20010;-87
2023/12/13 09:26:52;;;;;;;29.17;17.52;;;9.90;99.90;;;;;;6369580;22;19995;-86
2023/12/13 09:29:18;;;;;;;52.33;33.35;;;10.40;99.90;;;;;;6368539;22;20002;-85
2023/12/13 09:31:45;;;;;;;26.42;15.00;;;10.50;99.90;;;;;;6369334;22;20080;-85
2023/12/13 09:34:11;;;;;;;23.75;13.65;;;10.00;99.90;;;;;;6368426;22;20047;-85
2023/12/13 09:36:48;;;;;;;24.88;13.10;;;9.90;99.90;;;;;;6378376;22;20010;-88
2023/12/13 09:39:15;;;;;;;17.20;12.55;;;9.90;99.90;;;;;;6376559;22;20003;-85
2023/12/13 09:42:08;;;;;;;20.65;11.88;;;10.00;99.90;;;;;;6372719;22;20009;-92
2023/12/13 09:44:44;;;;;;;21.85;12.52;;;10.00;99.90;;;;;;6369847;22;20049;-89
2023/12/13 09:47:28;;;;;;;17.20;11.27;;;10.60;99.90;;;;;;6375955;22;20055;-89
2023/12/13 09:49:57;;;;;;;21.35;12.32;;;10.10;99.90;;;;;;6374246;22;20004;-93
2023/12/13 09:52:39;;;;;;;21.98;11.50;;;10.90;99.90;;;;;;6373449;22;20060;-92
2023/12/13 09:55:07;;;;;;;20.85;10.68;;;11.30;99.90;;;;;;6371705;22;20322;-91
2023/12/13 09:57:34;;;;;;;23.25;12.45;;;10.10;99.90;;;;;;6372477;22;20069;-89
2023/12/13 10:00:00;;;;;;;23.90;11.63;;;11.00;99.90;;;;;;6388867;22;20010;-91
2023/12/13 10:02:28;;;;;;;18.70;10.77;;;10.20;99.90;;;;;;6373115;22;20422;-89
2023/12/13 10:04:57;;;;;;;21.85;10.77;;;10.10;99.90;;;;;;6371786;22;20006;-91
2023/12/13 10:07:29;;;;;;;20.17;11.65;;;10.90;99.90;;;;;;6371551;22;20003;-91
2023/12/13 10:10:06;;;;;;;21.77;10.65;;;10.10;99.90;;;;;;6370498;22;20010;-93
2023/12/13 10:12:32;;;;;;;21.75;11.05;;;10.10;99.90;;;;;;6372719;22;19998;-88
2023/12/13 10:15:07;;;;;;;15.90;10.10;;;10.20;99.90;;;;;;6371100;22;20303;-92
2023/12/13 10:17:39;;;;;;;20.83;10.02;;;10.20;99.90;;;;;;6372964;22;20002;-94
2023/12/13 10:20:06;;;;;;;19.60;11.85;;;10.20;99.90;;;;;;6372059;22;20403;-91
2023/12/13 10:22:34;;;;;;;23.70;11.52;;;10.20;99.90;;;;;;6371704;22;20002;-91
2023/12/13 10:25:05;;;;;;;20.02;10.75;;;10.20;99.90;;;;;;6372496;22;20018;-92
2023/12/13 10:27:33;;;;;;;25.42;11.05;;;10.30;99.90;;;;;;6371521;22;19994;-90
2023/12/13 10:30:01;;;;;;;18.30;10.20;;;10.20;99.90;;;;;;6380596;22;20002;-90
2023/12/13 10:32:42;;;;;;;22.13;10.48;;;10.30;99.90;;;;;;6381360;22;20101;-92
2023/12/13 10:35:22;;;;;;;14.07;10.40;;;10.30;99.90;;;;;;6373964;22;20021;-91
2023/12/13 10:38:01;;;;;;;22.83;10.73;;;10.30;99.90;;;;;;6371880;22;20025;-92
2023/12/13 10:40:35;;;;;;;16.75;10.48;;;10.80;99.90;;;;;;6372785;22;20007;-91
2023/12/13 10:43:04;;;;;;;18.80;10.35;;;10.30;99.90;;;;;;6370940;22;20047;-87
2023/12/13 10:45:31;;;;;;;19.70;10.27;;;10.40;99.90;;;;;;6371731;22;20037;-92
2023/12/13 10:48:04;;;;;;;17.70;10.13;;;10.60;99.90;;;;;;6371083;22;20078;-90
2023/12/13 10:50:32;;;;;;;24.40;11.15;;;10.40;99.90;;;;;;6370630;22;20006;-93
2023/12/13 10:53:01;;;;;;;13.95;10.65;;;10.30;99.90;;;;;;6375488;22;19994;-94
2023/12/13 10:55:46;;;;;;;24.38;11.80;;;10.30;99.90;;;;;;6374757;22;20002;-93
2023/12/13 10:58:15;;;;;;;21.60;10.93;;;10.40;99.90;;;;;;6373496;22;20087;-92
2023/12/13 11:00:48;;;;;;;21.27;11.18;;;10.40;99.90;;;;;;6372380;22;20063;-91
2023/12/13 11:03:23;;;;;;;19.75;11.15;;;10.40;99.90;;;;;;6372523;22;20359;-91
2023/12/13 11:05:49;;;;;;;26.65;12.10;;;10.40;99.90;;;;;;6372450;22;20007;-92
2023/12/13 11:08:22;;;;;;;20.63;11.68;;;10.40;99.90;;;;;;6373140;22;20009;-90
2023/12/13 11:11:05;;;;;;;19.10;11.85;;;10.40;99.90;;;;;;6376485;22;20003;-92
2023/12/13 11:13:32;;;;;;;19.75;12.27;;;10.40;99.90;;;;;;6372174;22;20055;-90
2023/12/13 11:15:58;;;;;;;26.10;12.10;;;10.40;99.90;;;;;;6391341;22;20010;-92
2023/12/13 11:18:28;;;;;;;18.35;11.82;;;10.40;99.90;;;;;;6393945;22;20001;-88
2023/12/13 11:24:22;;;;;;;21.42;11.85;;;10.40;99.90;;;;;;6393263;22;20053;-90
2023/12/13 11:26:52;;;;;;;14.45;10.88;;;10.50;99.90;;;;;;6376025;22;19998;-91
2023/12/13 11:29:20;;;;;;;17.60;11.20;;;11.20;99.90;;;;;;6391402;22;20010;-90
2023/12/13 11:32:02;;;;;;;21.75;11.95;;;10.40;99.90;;;;;;6401527;22;20300;-90
2023/12/13 11:34:43;;;;;;;19.25;11.98;;;10.40;99.90;;;;;;6401512;22;20020;-91
2023/12/13 11:37:13;;;;;;;15.77;11.07;;;10.40;99.90;;;;;;6407198;22;20051;-89
2023/12/13 11:39:41;;;;;;;18.67;11.68;;;10.50;99.90;;;;;;6406728;22;20054;-89
2023/12/13 11:42:08;;;;;;;25.38;12.52;;;10.80;99.90;;;;;;6402348;22;20005;-87
2023/12/13 11:44:39;;;;;;;18.40;12.02;;;10.50;99.90;;;;;;6402154;22;20030;-86
2023/12/13 11:47:09;;;;;;;19.08;12.60;;;10.50;99.90;;;;;;6404732;22;20521;-90
2023/12/13 11:49:39;;;;;;;17.88;12.60;;;10.60;99.90;;;;;;6406744;22;20004;-90
2023/12/13 11:52:06;;;;;;;21.87;12.17;;;10.50;99.90;;;;;;6407383;22;20081;-89
2023/12/13 11:54:49;;;;;;;24.58;14.10;;;10.60;99.90;;;;;;6392475;22;19998;-92
2023/12/13 11:57:21;;;;;;;19.95;13.75;;;10.60;99.90;;;;;;6405308;22;20012;-87
2023/12/13 12:00:07;;;;;;;23.60;13.10;;;10.90;99.90;;;;;;6403196;22;20101;-87
2023/12/13 12:02:34;;;;;;;17.52;12.43;;;10.60;99.90;;;;;;6404336;22;20009;-89
2023/12/13 12:05:19;;;;;;;21.48;13.65;;;11.60;99.90;;;;;;6398474;22;20035;-88
2023/12/13 12:08:11;;;;;;;19.25;12.65;;;10.60;99.90;;;;;;6403775;22;20081;-87
2023/12/13 12:11:06;;;;;;;28.15;15.63;;;10.70;99.90;;;;;;6404051;22;19998;-90
2023/12/13 12:13:35;;;;;;;20.88;12.95;;;10.60;99.90;;;;;;6404221;22;20005;-88
2023/12/13 12:16:02;;;;;;;23.65;13.20;;;11.50;99.90;;;;;;6403894;22;20356;-90
2023/12/13 12:18:59;;;;;;;18.98;12.20;;;10.70;99.90;;;;;;6423070;22;20006;-88
2023/12/13 12:21:44;;;;;;;16.98;12.25;;;10.40;99.90;;;;;;6403864;22;20024;-89
2023/12/13 12:24:11;;;;;;;25.30;12.07;;;10.70;99.90;;;;;;6405253;22;20009;-88
2023/12/13 12:27:30;;;;;;;19.27;11.65;;;10.70;99.90;;;;;;6403975;22;20002;-89
2023/12/13 12:30:05;;;;;;;19.75;13.10;;;10.70;99.90;;;;;;6401499;22;20006;-92
2023/12/13 12:32:54;;;;;;;22.50;13.75;;;10.70;99.90;;;;;;6405733;22;20013;-92
2023/12/13 12:35:44;;;;;;;20.67;13.13;;;10.20;99.90;;;;;;6403818;22;20058;-92
2023/12/13 12:38:14;;;;;;;18.88;12.52;;;10.70;99.90;;;;;;6411026;22;20503;-91
2023/12/13 12:41:06;;;;;;;23.00;12.55;;;10.80;99.90;;;;;;6422701;22;19994;-91
2023/12/13 12:43:54;;;;;;;24.23;13.75;;;10.70;99.90;;;;;;6407395;22;20467;-87
2023/12/13 12:46:21;;;;;;;20.75;13.15;;;10.70;99.90;;;;;;6404499;22;20438;-93
2023/12/13 12:49:05;;;;;;;22.48;13.13;;;10.70;99.90;;;;;;6405127;22;20063;-90
2023/12/13 12:51:32;;;;;;;22.35;13.00;;;10.80;99.90;;;;;;6404339;22;20002;-88
2023/12/13 12:53:58;;;;;;;27.98;14.43;;;10.80;99.90;;;;;;6405730;22;20002;-88
2023/12/13 12:56:45;;;;;;;22.02;13.27;;;11.00;99.90;;;;;;6408091;22;20033;-90
2023/12/13 12:59:14;;;;;;;18.85;12.65;;;10.20;99.90;;;;;;6408679;22;20010;-87
2023/12/13 13:02:05;;;;;;;25.13;14.32;;;11.60;99.90;;;;;;6412522;22;20005;-90
2023/12/13 13:04:31;;;;;;;21.65;13.07;;;10.80;99.90;;;;;;6405663;22;20029;-88
2023/12/13 13:07:18;;;;;;;20.08;13.18;;;11.40;99.90;;;;;;6404969;22;20051;-89
2023/12/13 13:09:44;;;;;;;21.92;13.48;;;10.80;99.90;;;;;;6408915;22;19998;-88
2023/12/13 13:12:28;;;;;;;18.48;13.45;;;11.40;99.90;;;;;;6411237;22;20082;-91
2023/12/13 13:14:56;;;;;;;21.88;14.05;;;10.50;99.90;;;;;;6413865;22;20002;-90
2023/12/13 13:17:46;;;;;;;20.08;13.02;;;10.90;99.90;;;;;;6411844;22;19998;-90
2023/12/13 13:20:13;;;;;;;18.95;13.38;;;10.20;99.90;;;;;;6394158;22;20014;-89
2023/12/13 13:22:41;;;;;;;17.23;12.82;;;10.80;99.90;;;;;;6342979;22;20080;-90
2023/12/13 13:25:07;;;;;;;26.02;13.95;;;10.80;99.90;;;;;;6339289;22;20446;-76
2023/12/13 13:27:53;;;;;;;22.00;12.75;;;10.80;99.90;;;;;;6335932;22;20474;-89
2023/12/13 13:30:20;;;;;;;21.45;13.70;;;11.60;99.90;;;;;;6340248;22;20026;-87
2023/12/13 13:32:48;;;;;;;19.77;12.70;;;10.90;99.90;;;;;;6345684;22;20120;-87
2023/12/13 13:35:15;;;;;;;21.67;12.25;;;10.30;99.90;;;;;;6344290;22;20014;-91
2023/12/13 13:37:40;;;;;;;25.80;13.38;;;10.70;99.90;;;;;;6342781;22;19998;-90
2023/12/13 13:42:39;;;;;;;28.42;13.73;;;10.80;99.90;;;;;;6362344;22;20033;-90
2023/12/13 13:45:11;;;;;;;22.25;13.13;;;11.50;99.90;;;;;;6375370;22;20011;-95
2023/12/13 13:47:54;;;;;;;27.30;17.83;;;11.70;99.90;;;;;;6382671;22;20002;-95
2023/12/13 13:50:19;;;;;;;20.08;13.27;;;10.20;99.90;;;;;;6377415;22;20002;-93
2023/12/13 13:52:45;;;;;;;29.40;15.90;;;10.70;99.90;;;;;;6375591;22;19998;-92
2023/12/13 13:55:29;;;;;;;17.40;12.73;;;10.70;99.90;;;;;;6372609;22;20081;-88